sensor_id;sensor_type;location;lat;lon;timestamp;P1;durP1;ratioP1;P2;durP2;ratioP2
12896;SDS011;6516;35.028;32.372;2022-08-19T00:00:39;20.63;;;12.17;;
12896;SDS011;6516;35.028;32.372;2022-08-19T00:03:07;18.88;;;12.35;;
12896;SDS011;6516;35.028;32.372;2022-08-19T00:05:35;20.88;;;12.70;;
12896;SDS011;6516;35.028;32.372;2022-08-19T00:08:05;19.20;;;11.88;;
12896;SDS011;6516;35.028;32.372;2022-08-19T00:10:33;15.80;;;11.32;;
12896;SDS011;6516;35.028;32.372;2022-08-19T00:13:01;18.00;;;11.60;;
12896;SDS011;6516;35.028;32.372;2022-08-19T00:15:29;19.73;;;12.30;;
12896;SDS011;6516;35.028;32.372;2022-08-19T00:17:57;21.95;;;12.43;;
12896;SDS011;6516;35.028;32.372;2022-08-19T00:20:25;20.80;;;12.50;;
12896;SDS011;6516;35.028;32.372;2022-08-19T00:22:53;18.35;;;12.57;;
12896;SDS011;6516;35.028;32.372;2022-08-19T00:25:22;18.93;;;12.20;;
12896;SDS011;6516;35.028;32.372;2022-08-19T00:27:50;21.88;;;13.27;;
12896;SDS011;6516;35.028;32.372;2022-08-19T00:30:18;21.70;;;12.55;;
12896;SDS011;6516;35.028;32.372;2022-08-19T00:32:45;17.65;;;11.85;;
12896;SDS011;6516;35.028;32.372;2022-08-19T00:35:13;16.95;;;11.93;;
12896;SDS011;6516;35.028;32.372;2022-08-19T00:37:42;23.40;;;13.20;;
12896;SDS011;6516;35.028;32.372;2022-08-19T00:40:11;19.00;;;13.02;;
12896;SDS011;6516;35.028;32.372;2022-08-19T00:42:41;22.42;;;13.95;;
12896;SDS011;6516;35.028;32.372;2022-08-19T00:45:11;23.73;;;14.27;;
12896;SDS011;6516;35.028;32.372;2022-08-19T00:47:42;21.63;;;14.20;;
12896;SDS011;6516;35.028;32.372;2022-08-19T00:50:11;20.10;;;14.00;;
12896;SDS011;6516;35.028;32.372;2022-08-19T00:52:46;21.02;;;13.75;;
12896;SDS011;6516;35.028;32.372;2022-08-19T00:55:18;21.85;;;14.13;;
12896;SDS011;6516;35.028;32.372;2022-08-19T00:57:51;22.67;;;13.38;;
12896;SDS011;6516;35.028;32.372;2022-08-19T01:00:23;21.88;;;13.43;;
12896;SDS011;6516;35.028;32.372;2022-08-19T01:02:53;19.37;;;12.67;;
12896;SDS011;6516;35.028;32.372;2022-08-19T01:05:22;20.45;;;13.05;;
12896;SDS011;6516;35.028;32.372;2022-08-19T01:07:54;22.92;;;13.75;;
12896;SDS011;6516;35.028;32.372;2022-08-19T01:10:25;18.10;;;13.32;;
12896;SDS011;6516;35.028;32.372;2022-08-19T01:12:58;19.88;;;13.82;;
12896;SDS011;6516;35.028;32.372;2022-08-19T01:15:29;19.07;;;13.13;;
12896;SDS011;6516;35.028;32.372;2022-08-19T01:18:05;18.88;;;13.93;;
12896;SDS011;6516;35.028;32.372;2022-08-19T01:20:36;23.35;;;14.65;;
12896;SDS011;6516;35.028;32.372;2022-08-19T01:23:08;24.95;;;13.95;;
12896;SDS011;6516;35.028;32.372;2022-08-19T01:25:39;19.08;;;13.02;;
12896;SDS011;6516;35.028;32.372;2022-08-19T01:28:17;18.03;;;13.63;;
12896;SDS011;6516;35.028;32.372;2022-08-19T01:30:48;17.83;;;13.55;;
12896;SDS011;6516;35.028;32.372;2022-08-19T01:33:16;20.27;;;13.57;;
12896;SDS011;6516;35.028;32.372;2022-08-19T01:35:44;19.38;;;13.63;;
12896;SDS011;6516;35.028;32.372;2022-08-19T01:38:20;22.63;;;14.13;;
12896;SDS011;6516;35.028;32.372;2022-08-19T01:40:51;18.10;;;14.07;;
12896;SDS011;6516;35.028;32.372;2022-08-19T01:43:20;22.13;;;15.00;;
12896;SDS011;6516;35.028;32.372;2022-08-19T01:45:48;21.77;;;15.43;;
12896;SDS011;6516;35.028;32.372;2022-08-19T01:48:16;21.70;;;15.05;;
12896;SDS011;6516;35.028;32.372;2022-08-19T01:50:44;21.45;;;13.88;;
12896;SDS011;6516;35.028;32.372;2022-08-19T01:53:12;23.57;;;14.27;;
12896;SDS011;6516;35.028;32.372;2022-08-19T01:55:42;21.58;;;13.40;;
12896;SDS011;6516;35.028;32.372;2022-08-19T01:58:12;18.80;;;13.88;;
12896;SDS011;6516;35.028;32.372;2022-08-19T02:00:45;18.52;;;13.30;;
12896;SDS011;6516;35.028;32.372;2022-08-19T02:03:14;16.73;;;13.50;;
12896;SDS011;6516;35.028;32.372;2022-08-19T02:05:43;19.70;;;13.60;;
12896;SDS011;6516;35.028;32.372;2022-08-19T02:08:11;17.58;;;13.40;;
12896;SDS011;6516;35.028;32.372;2022-08-19T02:10:40;16.08;;;13.45;;
12896;SDS011;6516;35.028;32.372;2022-08-19T02:13:10;16.00;;;13.02;;
12896;SDS011;6516;35.028;32.372;2022-08-19T02:15:39;17.52;;;13.63;;
12896;SDS011;6516;35.028;32.372;2022-08-19T02:18:08;16.63;;;13.43;;
12896;SDS011;6516;35.028;32.372;2022-08-19T02:20:36;22.52;;;13.55;;
12896;SDS011;6516;35.028;32.372;2022-08-19T02:23:06;21.13;;;13.75;;
12896;SDS011;6516;35.028;32.372;2022-08-19T02:25:34;19.27;;;13.85;;
12896;SDS011;6516;35.028;32.372;2022-08-19T02:28:04;17.50;;;13.05;;
12896;SDS011;6516;35.028;32.372;2022-08-19T02:30:32;18.00;;;12.73;;
12896;SDS011;6516;35.028;32.372;2022-08-19T02:33:00;21.95;;;13.73;;
12896;SDS011;6516;35.028;32.372;2022-08-19T02:35:28;18.27;;;14.02;;
12896;SDS011;6516;35.028;32.372;2022-08-19T02:37:55;19.60;;;14.25;;
12896;SDS011;6516;35.028;32.372;2022-08-19T02:40:47;19.02;;;14.80;;
12896;SDS011;6516;35.028;32.372;2022-08-19T02:43:19;21.80;;;14.27;;
12896;SDS011;6516;35.028;32.372;2022-08-19T02:45:48;20.23;;;14.38;;
12896;SDS011;6516;35.028;32.372;2022-08-19T02:48:16;20.35;;;14.05;;
12896;SDS011;6516;35.028;32.372;2022-08-19T02:50:45;23.58;;;13.73;;
12896;SDS011;6516;35.028;32.372;2022-08-19T02:53:19;19.90;;;13.25;;
12896;SDS011;6516;35.028;32.372;2022-08-19T02:55:49;20.07;;;12.37;;
12896;SDS011;6516;35.028;32.372;2022-08-19T02:58:19;19.23;;;13.52;;
12896;SDS011;6516;35.028;32.372;2022-08-19T03:00:49;19.42;;;12.05;;
12896;SDS011;6516;35.028;32.372;2022-08-19T03:03:19;19.30;;;12.50;;
12896;SDS011;6516;35.028;32.372;2022-08-19T03:05:47;20.77;;;12.60;;
12896;SDS011;6516;35.028;32.372;2022-08-19T03:08:15;18.37;;;12.80;;
12896;SDS011;6516;35.028;32.372;2022-08-19T03:10:43;18.35;;;13.07;;
12896;SDS011;6516;35.028;32.372;2022-08-19T03:13:14;22.50;;;13.30;;
12896;SDS011;6516;35.028;32.372;2022-08-19T03:15:46;20.30;;;12.68;;
12896;SDS011;6516;35.028;32.372;2022-08-19T03:18:15;20.17;;;12.85;;
12896;SDS011;6516;35.028;32.372;2022-08-19T03:20:44;18.17;;;12.07;;
12896;SDS011;6516;35.028;32.372;2022-08-19T03:23:14;17.48;;;12.73;;
12896;SDS011;6516;35.028;32.372;2022-08-19T03:25:44;17.50;;;12.98;;
12896;SDS011;6516;35.028;32.372;2022-08-19T03:28:14;19.58;;;13.40;;
12896;SDS011;6516;35.028;32.372;2022-08-19T03:30:43;18.88;;;13.32;;
12896;SDS011;6516;35.028;32.372;2022-08-19T03:33:24;20.63;;;13.37;;
12896;SDS011;6516;35.028;32.372;2022-08-19T03:36:00;19.73;;;13.05;;
12896;SDS011;6516;35.028;32.372;2022-08-19T03:38:31;18.52;;;13.23;;
12896;SDS011;6516;35.028;32.372;2022-08-19T03:41:02;19.70;;;13.02;;
12896;SDS011;6516;35.028;32.372;2022-08-19T03:43:33;23.13;;;13.20;;
12896;SDS011;6516;35.028;32.372;2022-08-19T03:46:05;17.07;;;12.27;;
12896;SDS011;6516;35.028;32.372;2022-08-19T03:48:37;18.80;;;12.75;;
12896;SDS011;6516;35.028;32.372;2022-08-19T03:51:06;19.75;;;12.18;;
12896;SDS011;6516;35.028;32.372;2022-08-19T03:53:42;18.35;;;12.27;;
12896;SDS011;6516;35.028;32.372;2022-08-19T03:56:10;17.15;;;11.95;;
12896;SDS011;6516;35.028;32.372;2022-08-19T03:58:38;14.00;;;11.37;;
12896;SDS011;6516;35.028;32.372;2022-08-19T04:01:10;15.05;;;12.13;;
12896;SDS011;6516;35.028;32.372;2022-08-19T04:03:41;17.60;;;12.52;;
12896;SDS011;6516;35.028;32.372;2022-08-19T04:06:09;15.32;;;11.55;;
12896;SDS011;6516;35.028;32.372;2022-08-19T04:08:39;18.17;;;12.50;;
12896;SDS011;6516;35.028;32.372;2022-08-19T04:11:07;17.57;;;10.60;;
12896;SDS011;6516;35.028;32.372;2022-08-19T04:13:37;14.13;;;10.68;;
12896;SDS011;6516;35.028;32.372;2022-08-19T04:16:05;16.30;;;11.32;;
12896;SDS011;6516;35.028;32.372;2022-08-19T04:18:37;16.42;;;10.52;;
12896;SDS011;6516;35.028;32.372;2022-08-19T04:21:07;18.15;;;10.63;;
12896;SDS011;6516;35.028;32.372;2022-08-19T04:23:41;15.70;;;10.30;;
12896;SDS011;6516;35.028;32.372;2022-08-19T04:26:12;16.25;;;10.27;;
12896;SDS011;6516;35.028;32.372;2022-08-19T04:28:41;17.05;;;10.70;;
12896;SDS011;6516;35.028;32.372;2022-08-19T04:31:12;15.65;;;10.55;;
12896;SDS011;6516;35.028;32.372;2022-08-19T04:33:43;15.23;;;10.30;;
12896;SDS011;6516;35.028;32.372;2022-08-19T04:36:15;15.40;;;10.50;;
12896;SDS011;6516;35.028;32.372;2022-08-19T04:38:46;14.38;;;10.98;;
12896;SDS011;6516;35.028;32.372;2022-08-19T04:41:14;14.80;;;11.10;;
12896;SDS011;6516;35.028;32.372;2022-08-19T04:44:00;13.05;;;10.10;;
12896;SDS011;6516;35.028;32.372;2022-08-19T04:46:29;14.05;;;11.23;;
12896;SDS011;6516;35.028;32.372;2022-08-19T04:48:58;15.33;;;9.90;;
12896;SDS011;6516;35.028;32.372;2022-08-19T04:51:28;11.82;;;9.23;;
12896;SDS011;6516;35.028;32.372;2022-08-19T04:53:56;13.57;;;9.80;;
12896;SDS011;6516;35.028;32.372;2022-08-19T04:56:25;13.70;;;9.48;;
12896;SDS011;6516;35.028;32.372;2022-08-19T04:58:54;14.85;;;9.65;;
12896;SDS011;6516;35.028;32.372;2022-08-19T05:01:24;13.23;;;8.93;;
12896;SDS011;6516;35.028;32.372;2022-08-19T05:03:55;12.63;;;8.68;;
12896;SDS011;6516;35.028;32.372;2022-08-19T05:06:25;12.90;;;8.93;;
12896;SDS011;6516;35.028;32.372;2022-08-19T05:08:54;10.68;;;8.75;;
12896;SDS011;6516;35.028;32.372;2022-08-19T05:11:22;11.40;;;8.85;;
12896;SDS011;6516;35.028;32.372;2022-08-19T05:13:53;14.43;;;8.70;;
12896;SDS011;6516;35.028;32.372;2022-08-19T05:16:22;11.88;;;8.57;;
12896;SDS011;6516;35.028;32.372;2022-08-19T05:18:51;10.73;;;8.90;;
12896;SDS011;6516;35.028;32.372;2022-08-19T05:21:38;13.35;;;9.25;;
12896;SDS011;6516;35.028;32.372;2022-08-19T05:24:24;12.20;;;8.80;;
12896;SDS011;6516;35.028;32.372;2022-08-19T05:26:52;13.83;;;8.93;;
12896;SDS011;6516;35.028;32.372;2022-08-19T05:29:23;12.88;;;8.57;;
12896;SDS011;6516;35.028;32.372;2022-08-19T05:31:53;11.95;;;8.00;;
12896;SDS011;6516;35.028;32.372;2022-08-19T05:34:23;14.77;;;8.50;;
12896;SDS011;6516;35.028;32.372;2022-08-19T05:36:54;11.77;;;7.43;;
12896;SDS011;6516;35.028;32.372;2022-08-19T05:39:25;13.77;;;7.87;;
12896;SDS011;6516;35.028;32.372;2022-08-19T05:41:57;12.88;;;7.80;;
12896;SDS011;6516;35.028;32.372;2022-08-19T05:44:29;12.80;;;7.60;;
12896;SDS011;6516;35.028;32.372;2022-08-19T05:46:59;11.75;;;7.90;;
12896;SDS011;6516;35.028;32.372;2022-08-19T05:49:29;12.15;;;7.97;;
12896;SDS011;6516;35.028;32.372;2022-08-19T05:52:02;10.73;;;7.63;;
12896;SDS011;6516;35.028;32.372;2022-08-19T05:54:33;11.65;;;7.97;;
12896;SDS011;6516;35.028;32.372;2022-08-19T05:57:01;12.43;;;7.75;;
12896;SDS011;6516;35.028;32.372;2022-08-19T05:59:30;12.50;;;7.45;;
12896;SDS011;6516;35.028;32.372;2022-08-19T06:01:59;14.35;;;8.40;;
12896;SDS011;6516;35.028;32.372;2022-08-19T06:04:27;11.30;;;7.90;;
12896;SDS011;6516;35.028;32.372;2022-08-19T06:06:55;11.93;;;7.70;;
12896;SDS011;6516;35.028;32.372;2022-08-19T06:09:25;11.50;;;7.93;;
12896;SDS011;6516;35.028;32.372;2022-08-19T06:11:53;13.15;;;8.50;;
12896;SDS011;6516;35.028;32.372;2022-08-19T06:14:29;12.10;;;7.97;;
12896;SDS011;6516;35.028;32.372;2022-08-19T06:17:00;11.53;;;7.97;;
12896;SDS011;6516;35.028;32.372;2022-08-19T06:19:29;10.50;;;8.30;;
12896;SDS011;6516;35.028;32.372;2022-08-19T06:21:58;13.85;;;8.38;;
12896;SDS011;6516;35.028;32.372;2022-08-19T06:24:28;11.15;;;7.65;;
12896;SDS011;6516;35.028;32.372;2022-08-19T06:26:57;11.77;;;8.05;;
12896;SDS011;6516;35.028;32.372;2022-08-19T06:29:27;12.17;;;8.50;;
12896;SDS011;6516;35.028;32.372;2022-08-19T06:31:58;12.32;;;8.32;;
12896;SDS011;6516;35.028;32.372;2022-08-19T06:34:28;12.75;;;8.10;;
12896;SDS011;6516;35.028;32.372;2022-08-19T06:36:59;12.57;;;7.80;;
12896;SDS011;6516;35.028;32.372;2022-08-19T06:39:30;12.60;;;7.82;;
12896;SDS011;6516;35.028;32.372;2022-08-19T06:42:02;12.40;;;8.07;;
12896;SDS011;6516;35.028;32.372;2022-08-19T06:44:35;12.05;;;8.25;;
12896;SDS011;6516;35.028;32.372;2022-08-19T06:47:06;11.65;;;7.75;;
12896;SDS011;6516;35.028;32.372;2022-08-19T06:49:36;11.52;;;7.80;;
12896;SDS011;6516;35.028;32.372;2022-08-19T06:52:04;11.65;;;7.75;;
12896;SDS011;6516;35.028;32.372;2022-08-19T06:54:34;10.53;;;7.73;;
12896;SDS011;6516;35.028;32.372;2022-08-19T06:57:02;13.60;;;7.97;;
12896;SDS011;6516;35.028;32.372;2022-08-19T06:59:31;11.60;;;7.65;;
12896;SDS011;6516;35.028;32.372;2022-08-19T07:02:00;12.18;;;7.60;;
12896;SDS011;6516;35.028;32.372;2022-08-19T07:04:32;9.68;;;7.35;;
12896;SDS011;6516;35.028;32.372;2022-08-19T07:07:04;9.80;;;7.73;;
12896;SDS011;6516;35.028;32.372;2022-08-19T07:09:36;15.80;;;8.00;;
12896;SDS011;6516;35.028;32.372;2022-08-19T07:12:08;14.43;;;8.13;;
12896;SDS011;6516;35.028;32.372;2022-08-19T07:14:39;13.20;;;7.78;;
12896;SDS011;6516;35.028;32.372;2022-08-19T07:17:07;11.68;;;8.07;;
12896;SDS011;6516;35.028;32.372;2022-08-19T07:19:37;11.97;;;8.20;;
12896;SDS011;6516;35.028;32.372;2022-08-19T07:22:07;10.48;;;8.00;;
12896;SDS011;6516;35.028;32.372;2022-08-19T07:24:37;14.85;;;8.32;;
12896;SDS011;6516;35.028;32.372;2022-08-19T07:27:06;11.60;;;7.97;;
12896;SDS011;6516;35.028;32.372;2022-08-19T07:29:35;12.48;;;8.25;;
12896;SDS011;6516;35.028;32.372;2022-08-19T07:32:04;15.00;;;8.37;;
12896;SDS011;6516;35.028;32.372;2022-08-19T07:34:34;12.32;;;7.88;;
12896;SDS011;6516;35.028;32.372;2022-08-19T07:37:03;10.63;;;7.65;;
12896;SDS011;6516;35.028;32.372;2022-08-19T07:39:32;11.73;;;7.93;;
12896;SDS011;6516;35.028;32.372;2022-08-19T07:42:05;12.73;;;7.72;;
12896;SDS011;6516;35.028;32.372;2022-08-19T07:44:35;13.90;;;8.00;;
12896;SDS011;6516;35.028;32.372;2022-08-19T07:47:04;10.27;;;7.47;;
12896;SDS011;6516;35.028;32.372;2022-08-19T07:49:32;12.32;;;7.32;;
12896;SDS011;6516;35.028;32.372;2022-08-19T07:52:01;10.48;;;7.65;;
12896;SDS011;6516;35.028;32.372;2022-08-19T07:54:33;11.52;;;7.68;;
12896;SDS011;6516;35.028;32.372;2022-08-19T07:57:06;11.50;;;7.60;;
12896;SDS011;6516;35.028;32.372;2022-08-19T07:59:34;12.95;;;7.53;;
12896;SDS011;6516;35.028;32.372;2022-08-19T08:02:02;11.32;;;7.30;;
12896;SDS011;6516;35.028;32.372;2022-08-19T08:04:31;15.85;;;7.78;;
12896;SDS011;6516;35.028;32.372;2022-08-19T08:07:16;10.25;;;7.20;;
12896;SDS011;6516;35.028;32.372;2022-08-19T08:10:02;11.93;;;6.77;;
12896;SDS011;6516;35.028;32.372;2022-08-19T08:12:33;9.55;;;6.60;;
12896;SDS011;6516;35.028;32.372;2022-08-19T08:15:07;10.45;;;7.05;;
12896;SDS011;6516;35.028;32.372;2022-08-19T08:17:37;11.77;;;6.90;;
12896;SDS011;6516;35.028;32.372;2022-08-19T08:20:05;10.85;;;7.20;;
12896;SDS011;6516;35.028;32.372;2022-08-19T08:22:34;13.53;;;6.47;;
12896;SDS011;6516;35.028;32.372;2022-08-19T08:25:20;10.25;;;6.30;;
12896;SDS011;6516;35.028;32.372;2022-08-19T08:27:51;10.65;;;5.97;;
12896;SDS011;6516;35.028;32.372;2022-08-19T08:30:20;13.88;;;5.93;;
12896;SDS011;6516;35.028;32.372;2022-08-19T08:32:51;13.68;;;6.20;;
12896;SDS011;6516;35.028;32.372;2022-08-19T08:35:20;13.37;;;5.90;;
12896;SDS011;6516;35.028;32.372;2022-08-19T08:37:51;12.63;;;6.10;;
12896;SDS011;6516;35.028;32.372;2022-08-19T08:40:22;13.52;;;6.00;;
12896;SDS011;6516;35.028;32.372;2022-08-19T08:42:57;12.05;;;5.70;;
12896;SDS011;6516;35.028;32.372;2022-08-19T08:45:33;11.27;;;6.20;;
12896;SDS011;6516;35.028;32.372;2022-08-19T08:48:08;11.43;;;5.93;;
12896;SDS011;6516;35.028;32.372;2022-08-19T08:50:45;13.75;;;6.10;;
12896;SDS011;6516;35.028;32.372;2022-08-19T08:53:18;11.63;;;6.47;;
12896;SDS011;6516;35.028;32.372;2022-08-19T08:55:48;13.65;;;6.28;;
12896;SDS011;6516;35.028;32.372;2022-08-19T08:58:19;13.27;;;5.95;;
12896;SDS011;6516;35.028;32.372;2022-08-19T09:01:07;13.53;;;6.07;;
12896;SDS011;6516;35.028;32.372;2022-08-19T09:03:38;12.25;;;5.70;;
12896;SDS011;6516;35.028;32.372;2022-08-19T09:06:07;10.93;;;5.95;;
12896;SDS011;6516;35.028;32.372;2022-08-19T09:08:47;11.55;;;6.10;;
12896;SDS011;6516;35.028;32.372;2022-08-19T09:11:29;11.57;;;5.57;;
12896;SDS011;6516;35.028;32.372;2022-08-19T09:14:14;10.23;;;5.73;;
12896;SDS011;6516;35.028;32.372;2022-08-19T09:17:07;10.00;;;5.72;;
12896;SDS011;6516;35.028;32.372;2022-08-19T09:19:36;10.10;;;6.18;;
12896;SDS011;6516;35.028;32.372;2022-08-19T09:22:17;10.65;;;5.80;;
12896;SDS011;6516;35.028;32.372;2022-08-19T09:24:47;13.07;;;6.28;;
12896;SDS011;6516;35.028;32.372;2022-08-19T09:27:17;11.30;;;6.23;;
12896;SDS011;6516;35.028;32.372;2022-08-19T09:29:47;11.40;;;6.00;;
12896;SDS011;6516;35.028;32.372;2022-08-19T09:32:15;11.20;;;6.05;;
12896;SDS011;6516;35.028;32.372;2022-08-19T09:34:43;11.52;;;5.97;;
12896;SDS011;6516;35.028;32.372;2022-08-19T09:37:11;14.13;;;6.40;;
12896;SDS011;6516;35.028;32.372;2022-08-19T09:39:39;10.80;;;5.70;;
12896;SDS011;6516;35.028;32.372;2022-08-19T09:42:09;12.88;;;5.93;;
12896;SDS011;6516;35.028;32.372;2022-08-19T09:44:39;12.68;;;5.80;;
12896;SDS011;6516;35.028;32.372;2022-08-19T09:47:09;11.63;;;5.60;;
12896;SDS011;6516;35.028;32.372;2022-08-19T09:49:38;12.10;;;5.65;;
12896;SDS011;6516;35.028;32.372;2022-08-19T09:52:08;14.90;;;6.17;;
12896;SDS011;6516;35.028;32.372;2022-08-19T09:54:36;10.93;;;5.55;;
12896;SDS011;6516;35.028;32.372;2022-08-19T09:57:04;11.73;;;5.80;;
12896;SDS011;6516;35.028;32.372;2022-08-19T09:59:33;10.18;;;5.38;;
12896;SDS011;6516;35.028;32.372;2022-08-19T10:02:01;12.90;;;5.43;;
12896;SDS011;6516;35.028;32.372;2022-08-19T10:04:31;14.20;;;5.73;;
12896;SDS011;6516;35.028;32.372;2022-08-19T10:07:12;11.23;;;5.72;;
12896;SDS011;6516;35.028;32.372;2022-08-19T10:09:40;12.40;;;6.13;;
12896;SDS011;6516;35.028;32.372;2022-08-19T10:12:08;14.45;;;6.40;;
12896;SDS011;6516;35.028;32.372;2022-08-19T10:14:36;13.02;;;6.05;;
12896;SDS011;6516;35.028;32.372;2022-08-19T10:17:04;13.60;;;5.80;;
12896;SDS011;6516;35.028;32.372;2022-08-19T10:19:33;13.15;;;5.90;;
12896;SDS011;6516;35.028;32.372;2022-08-19T10:22:03;14.63;;;6.32;;
12896;SDS011;6516;35.028;32.372;2022-08-19T10:24:32;14.40;;;5.70;;
12896;SDS011;6516;35.028;32.372;2022-08-19T10:27:01;16.25;;;6.88;;
12896;SDS011;6516;35.028;32.372;2022-08-19T10:29:31;15.83;;;5.93;;
12896;SDS011;6516;35.028;32.372;2022-08-19T10:32:01;14.07;;;6.68;;
12896;SDS011;6516;35.028;32.372;2022-08-19T10:34:31;13.15;;;5.90;;
12896;SDS011;6516;35.028;32.372;2022-08-19T10:37:01;16.73;;;6.50;;
12896;SDS011;6516;35.028;32.372;2022-08-19T10:39:31;13.30;;;5.93;;
12896;SDS011;6516;35.028;32.372;2022-08-19T10:42:03;12.77;;;5.90;;
12896;SDS011;6516;35.028;32.372;2022-08-19T10:44:32;13.38;;;6.10;;
12896;SDS011;6516;35.028;32.372;2022-08-19T10:47:01;12.23;;;6.40;;
12896;SDS011;6516;35.028;32.372;2022-08-19T10:49:30;11.65;;;5.75;;
12896;SDS011;6516;35.028;32.372;2022-08-19T10:52:20;11.68;;;6.00;;
12896;SDS011;6516;35.028;32.372;2022-08-19T10:54:59;13.40;;;6.07;;
12896;SDS011;6516;35.028;32.372;2022-08-19T10:57:44;15.05;;;6.47;;
12896;SDS011;6516;35.028;32.372;2022-08-19T11:00:13;11.50;;;6.43;;
12896;SDS011;6516;35.028;32.372;2022-08-19T11:02:41;13.05;;;6.20;;
12896;SDS011;6516;35.028;32.372;2022-08-19T11:05:09;17.08;;;6.47;;
12896;SDS011;6516;35.028;32.372;2022-08-19T11:07:39;13.60;;;5.83;;
12896;SDS011;6516;35.028;32.372;2022-08-19T11:10:08;13.48;;;6.40;;
12896;SDS011;6516;35.028;32.372;2022-08-19T11:12:38;11.82;;;6.40;;
12896;SDS011;6516;35.028;32.372;2022-08-19T11:15:07;13.75;;;6.10;;
12896;SDS011;6516;35.028;32.372;2022-08-19T11:17:37;11.98;;;6.45;;
12896;SDS011;6516;35.028;32.372;2022-08-19T11:20:09;11.47;;;6.27;;
12896;SDS011;6516;35.028;32.372;2022-08-19T11:22:40;11.27;;;6.03;;
12896;SDS011;6516;35.028;32.372;2022-08-19T11:25:08;12.73;;;6.65;;
12896;SDS011;6516;35.028;32.372;2022-08-19T11:27:38;14.02;;;6.70;;
12896;SDS011;6516;35.028;32.372;2022-08-19T11:30:09;13.60;;;6.43;;
12896;SDS011;6516;35.028;32.372;2022-08-19T11:32:39;12.03;;;6.40;;
12896;SDS011;6516;35.028;32.372;2022-08-19T11:35:07;12.80;;;6.15;;
12896;SDS011;6516;35.028;32.372;2022-08-19T11:37:36;13.30;;;7.00;;
12896;SDS011;6516;35.028;32.372;2022-08-19T11:40:06;12.30;;;6.18;;
12896;SDS011;6516;35.028;32.372;2022-08-19T11:42:36;17.77;;;6.60;;
12896;SDS011;6516;35.028;32.372;2022-08-19T11:45:23;17.20;;;6.57;;
12896;SDS011;6516;35.028;32.372;2022-08-19T11:47:51;13.73;;;6.57;;
12896;SDS011;6516;35.028;32.372;2022-08-19T11:50:20;13.10;;;6.50;;
12896;SDS011;6516;35.028;32.372;2022-08-19T11:52:48;14.25;;;6.75;;
12896;SDS011;6516;35.028;32.372;2022-08-19T11:55:18;14.07;;;6.75;;
12896;SDS011;6516;35.028;32.372;2022-08-19T11:57:47;13.70;;;6.20;;
12896;SDS011;6516;35.028;32.372;2022-08-19T12:00:15;14.63;;;6.93;;
12896;SDS011;6516;35.028;32.372;2022-08-19T12:02:43;13.40;;;6.63;;
12896;SDS011;6516;35.028;32.372;2022-08-19T12:05:11;13.73;;;7.03;;
12896;SDS011;6516;35.028;32.372;2022-08-19T12:07:39;13.20;;;6.70;;
12896;SDS011;6516;35.028;32.372;2022-08-19T12:10:09;13.43;;;6.60;;
12896;SDS011;6516;35.028;32.372;2022-08-19T12:12:38;11.82;;;6.93;;
12896;SDS011;6516;35.028;32.372;2022-08-19T12:15:10;12.23;;;6.90;;
12896;SDS011;6516;35.028;32.372;2022-08-19T12:17:39;12.90;;;6.38;;
12896;SDS011;6516;35.028;32.372;2022-08-19T12:20:08;16.02;;;7.78;;
12896;SDS011;6516;35.028;32.372;2022-08-19T12:22:38;11.03;;;6.80;;
12896;SDS011;6516;35.028;32.372;2022-08-19T12:25:07;11.60;;;6.60;;
12896;SDS011;6516;35.028;32.372;2022-08-19T12:27:37;10.82;;;7.32;;
12896;SDS011;6516;35.028;32.372;2022-08-19T12:30:07;14.63;;;7.10;;
12896;SDS011;6516;35.028;32.372;2022-08-19T12:32:38;12.02;;;7.70;;
12896;SDS011;6516;35.028;32.372;2022-08-19T12:35:07;12.17;;;6.83;;
12896;SDS011;6516;35.028;32.372;2022-08-19T12:37:36;12.05;;;7.40;;
12896;SDS011;6516;35.028;32.372;2022-08-19T12:40:08;15.60;;;7.60;;
12896;SDS011;6516;35.028;32.372;2022-08-19T12:42:37;12.90;;;7.00;;
12896;SDS011;6516;35.028;32.372;2022-08-19T12:45:08;13.55;;;7.15;;
12896;SDS011;6516;35.028;32.372;2022-08-19T12:47:37;12.90;;;6.83;;
12896;SDS011;6516;35.028;32.372;2022-08-19T12:50:05;13.55;;;7.00;;
12896;SDS011;6516;35.028;32.372;2022-08-19T12:52:35;14.20;;;6.70;;
12896;SDS011;6516;35.028;32.372;2022-08-19T12:55:04;13.95;;;6.88;;
12896;SDS011;6516;35.028;32.372;2022-08-19T12:57:34;13.93;;;7.53;;
12896;SDS011;6516;35.028;32.372;2022-08-19T13:00:06;15.67;;;7.37;;
12896;SDS011;6516;35.028;32.372;2022-08-19T13:02:38;13.68;;;6.97;;
12896;SDS011;6516;35.028;32.372;2022-08-19T13:05:09;12.07;;;6.97;;
12896;SDS011;6516;35.028;32.372;2022-08-19T13:07:41;16.15;;;8.38;;
12896;SDS011;6516;35.028;32.372;2022-08-19T13:10:10;14.45;;;7.88;;
12896;SDS011;6516;35.028;32.372;2022-08-19T13:12:41;14.40;;;7.40;;
12896;SDS011;6516;35.028;32.372;2022-08-19T13:15:13;14.98;;;7.25;;
12896;SDS011;6516;35.028;32.372;2022-08-19T13:17:45;15.15;;;7.60;;
12896;SDS011;6516;35.028;32.372;2022-08-19T13:20:15;12.50;;;7.53;;
12896;SDS011;6516;35.028;32.372;2022-08-19T13:22:45;16.45;;;7.93;;
12896;SDS011;6516;35.028;32.372;2022-08-19T13:25:14;15.83;;;7.77;;
12896;SDS011;6516;35.028;32.372;2022-08-19T13:27:45;13.50;;;7.70;;
12896;SDS011;6516;35.028;32.372;2022-08-19T13:30:15;14.15;;;7.63;;
12896;SDS011;6516;35.028;32.372;2022-08-19T13:33:03;13.57;;;7.60;;
12896;SDS011;6516;35.028;32.372;2022-08-19T13:35:37;15.18;;;7.60;;
12896;SDS011;6516;35.028;32.372;2022-08-19T13:38:06;12.53;;;7.10;;
12896;SDS011;6516;35.028;32.372;2022-08-19T13:40:35;16.42;;;7.75;;
12896;SDS011;6516;35.028;32.372;2022-08-19T13:43:04;15.10;;;7.70;;
12896;SDS011;6516;35.028;32.372;2022-08-19T13:45:34;13.02;;;7.40;;
12896;SDS011;6516;35.028;32.372;2022-08-19T13:48:04;13.88;;;8.15;;
12896;SDS011;6516;35.028;32.372;2022-08-19T13:50:35;12.67;;;7.30;;
12896;SDS011;6516;35.028;32.372;2022-08-19T13:53:07;13.95;;;7.68;;
12896;SDS011;6516;35.028;32.372;2022-08-19T13:55:37;12.90;;;7.82;;
12896;SDS011;6516;35.028;32.372;2022-08-19T13:58:05;14.50;;;8.07;;
12896;SDS011;6516;35.028;32.372;2022-08-19T14:00:35;14.93;;;8.25;;
12896;SDS011;6516;35.028;32.372;2022-08-19T14:03:06;14.90;;;8.23;;
12896;SDS011;6516;35.028;32.372;2022-08-19T14:05:34;15.10;;;7.65;;
12896;SDS011;6516;35.028;32.372;2022-08-19T14:08:02;14.00;;;8.27;;
12896;SDS011;6516;35.028;32.372;2022-08-19T14:10:31;17.80;;;8.85;;
12896;SDS011;6516;35.028;32.372;2022-08-19T14:13:01;18.15;;;8.52;;
12896;SDS011;6516;35.028;32.372;2022-08-19T14:15:30;15.00;;;8.73;;
12896;SDS011;6516;35.028;32.372;2022-08-19T14:18:00;15.75;;;8.40;;
12896;SDS011;6516;35.028;32.372;2022-08-19T14:20:27;16.83;;;8.70;;
12896;SDS011;6516;35.028;32.372;2022-08-19T14:22:56;14.68;;;8.43;;
12896;SDS011;6516;35.028;32.372;2022-08-19T14:25:25;16.02;;;8.55;;
12896;SDS011;6516;35.028;32.372;2022-08-19T14:27:56;14.23;;;8.17;;
12896;SDS011;6516;35.028;32.372;2022-08-19T14:30:25;15.00;;;8.45;;
12896;SDS011;6516;35.028;32.372;2022-08-19T14:32:55;15.77;;;8.73;;
12896;SDS011;6516;35.028;32.372;2022-08-19T14:35:26;15.35;;;8.50;;
12896;SDS011;6516;35.028;32.372;2022-08-19T14:37:55;16.85;;;9.35;;
12896;SDS011;6516;35.028;32.372;2022-08-19T14:40:24;17.63;;;8.93;;
12896;SDS011;6516;35.028;32.372;2022-08-19T14:42:55;16.23;;;8.82;;
12896;SDS011;6516;35.028;32.372;2022-08-19T14:45:29;20.65;;;9.15;;
12896;SDS011;6516;35.028;32.372;2022-08-19T14:47:58;16.25;;;8.75;;
12896;SDS011;6516;35.028;32.372;2022-08-19T14:50:28;16.77;;;8.93;;